createdAt,value
2023-04-30T00:00:31.045Z,32.13
2023-04-30T00:02:58.181Z,33.63
2023-04-30T00:05:25.467Z,34.13
2023-04-30T00:07:52.703Z,34.58
2023-04-30T00:10:19.779Z,37.28
2023-04-30T00:12:46.858Z,36.60
2023-04-30T00:15:13.935Z,37.08
2023-04-30T00:17:41.066Z,39.95
2023-04-30T00:20:08.421Z,34.20
2023-04-30T00:22:35.491Z,35.53
2023-04-30T00:25:02.811Z,41.50
2023-04-30T00:27:31.429Z,39.60
2023-04-30T00:29:58.746Z,38.47
2023-04-30T00:32:25.921Z,37.75
2023-04-30T00:34:53.228Z,32.03
2023-04-30T00:37:20.334Z,32.97
2023-04-30T00:39:47.373Z,32.22
2023-04-30T00:42:14.432Z,33.65
2023-04-30T00:44:41.732Z,31.50
2023-04-30T00:47:08.817Z,37.00
2023-04-30T00:49:35.925Z,36.67
2023-04-30T00:52:03.065Z,37.85
2023-04-30T00:54:30.112Z,38.15
2023-04-30T00:56:57.193Z,46.20
2023-04-30T00:59:24.227Z,40.17
2023-04-30T01:01:51.309Z,38.92
2023-04-30T01:04:18.473Z,43.50
2023-04-30T01:06:46.607Z,36.42
2023-04-30T01:09:13.753Z,39.13
2023-04-30T01:11:53.537Z,43.25
2023-04-30T01:14:27.161Z,47.07
2023-04-30T01:17:06.528Z,38.75
2023-04-30T01:19:38.947Z,46.08
2023-04-30T01:22:06.293Z,49.42
2023-04-30T01:24:33.861Z,49.00
2023-04-30T01:27:01.504Z,48.30
2023-04-30T01:29:29.261Z,49.70
2023-04-30T01:31:56.350Z,50.95
2023-04-30T01:34:23.386Z,45.75
2023-04-30T01:36:59.612Z,50.33
2023-04-30T01:39:45.473Z,49.35
2023-04-30T01:42:15.163Z,47.38
2023-04-30T01:44:44.813Z,43.77
2023-04-30T01:47:14.174Z,40.50
2023-04-30T01:49:56.783Z,36.67
2023-04-30T01:52:29.857Z,35.15
2023-04-30T01:54:59.250Z,31.58
2023-04-30T01:57:28.945Z,31.33
2023-04-30T01:59:56.080Z,32.10
2023-04-30T02:02:23.365Z,33.75
2023-04-30T02:04:50.565Z,39.03
2023-04-30T02:07:18.788Z,37.63
2023-04-30T02:09:45.952Z,36.67
2023-04-30T02:12:13.269Z,34.33
2023-04-30T02:14:40.591Z,35.20
2023-04-30T02:17:07.667Z,35.75
2023-04-30T02:19:34.743Z,31.90
2023-04-30T02:22:01.791Z,37.72
2023-04-30T02:24:28.875Z,35.45
2023-04-30T02:26:55.970Z,39.28
2023-04-30T02:29:35.813Z,43.75
2023-04-30T02:32:03.021Z,46.15
2023-04-30T02:34:30.240Z,49.63
2023-04-30T02:36:57.283Z,53.60
2023-04-30T02:39:24.562Z,46.60
2023-04-30T02:41:51.569Z,43.08
2023-04-30T02:44:18.867Z,48.40
2023-04-30T02:46:45.916Z,55.22
2023-04-30T02:49:12.961Z,56.15
2023-04-30T02:51:40.011Z,59.55
2023-04-30T02:54:07.052Z,68.05
2023-04-30T02:56:34.623Z,58.28
2023-04-30T02:59:01.693Z,57.97
2023-04-30T03:01:28.839Z,56.15
2023-04-30T03:03:56.033Z,55.85
2023-04-30T03:06:23.125Z,66.05
2023-04-30T03:08:50.323Z,72.38
2023-04-30T03:11:17.351Z,78.57
2023-04-30T03:13:44.468Z,89.90
2023-04-30T03:16:11.593Z,103.10
2023-04-30T03:18:38.760Z,97.40
2023-04-30T03:21:05.820Z,103.72
2023-04-30T03:23:32.888Z,99.22
2023-04-30T03:25:59.974Z,92.38
2023-04-30T03:28:27.104Z,101.85
2023-04-30T03:30:54.184Z,96.15
2023-04-30T03:33:21.566Z,101.28
2023-04-30T03:35:50.335Z,102.22
2023-04-30T03:38:17.423Z,96.63
2023-04-30T03:40:44.562Z,93.70
2023-04-30T03:43:12.537Z,91.00
2023-04-30T03:45:39.654Z,89.82
2023-04-30T03:48:06.893Z,90.13
2023-04-30T03:50:33.995Z,86.32
2023-04-30T03:53:01.566Z,82.10
2023-04-30T03:55:28.631Z,78.93
2023-04-30T03:57:56.106Z,80.60
2023-04-30T04:00:23.246Z,82.47
2023-04-30T04:02:50.422Z,74.25
2023-04-30T04:05:17.489Z,73.43
2023-04-30T04:07:44.536Z,76.18
2023-04-30T04:10:11.589Z,72.72
2023-04-30T04:12:38.637Z,73.95
2023-04-30T04:15:05.885Z,63.03
2023-04-30T04:17:32.997Z,67.32
2023-04-30T04:20:00.205Z,59.90
2023-04-30T04:22:27.314Z,68.25
2023-04-30T04:24:55.190Z,62.40
2023-04-30T04:27:22.298Z,62.50
2023-04-30T04:29:49.797Z,59.83
2023-04-30T04:32:16.810Z,59.70
2023-04-30T04:34:43.944Z,61.90
2023-04-30T04:37:11.019Z,59.97
2023-04-30T04:39:38.510Z,58.50
2023-04-30T04:42:05.558Z,61.80
2023-04-30T04:44:32.866Z,62.55
2023-04-30T04:46:59.917Z,59.17
2023-04-30T04:49:26.942Z,58.28
2023-04-30T04:51:53.990Z,63.22
2023-04-30T04:54:21.441Z,53.28
2023-04-30T04:56:48.564Z,54.80
2023-04-30T04:59:15.811Z,57.40
2023-04-30T05:01:43.010Z,57.60
2023-04-30T05:04:10.098Z,57.13
2023-04-30T05:06:37.145Z,53.50
2023-04-30T05:09:07.184Z,52.05
2023-04-30T05:11:34.257Z,48.35
2023-04-30T05:14:01.334Z,52.00
2023-04-30T05:16:28.548Z,50.40
2023-04-30T05:18:55.874Z,49.55
2023-04-30T05:21:23.107Z,48.58
2023-04-30T05:23:50.194Z,46.63
2023-04-30T05:26:17.294Z,44.83
2023-04-30T05:28:45.257Z,45.78
2023-04-30T05:31:12.396Z,40.90
2023-04-30T05:33:40.759Z,42.28
2023-04-30T05:36:07.869Z,40.65
2023-04-30T05:38:34.915Z,39.00
2023-04-30T05:41:02.003Z,33.65
2023-04-30T05:43:29.042Z,30.77
2023-04-30T05:45:56.235Z,32.85
2023-04-30T05:48:23.305Z,30.27
2023-04-30T05:50:50.311Z,32.47
2023-04-30T05:53:17.373Z,32.60
2023-04-30T05:55:44.433Z,28.02
2023-04-30T05:58:11.476Z,26.75
2023-04-30T06:00:39.344Z,28.05
2023-04-30T06:03:06.421Z,22.92
2023-04-30T06:05:33.710Z,23.02
2023-04-30T06:08:00.827Z,25.13
2023-04-30T06:10:28.007Z,27.85
2023-04-30T06:12:55.094Z,20.38
2023-04-30T06:15:22.715Z,25.00
2023-04-30T06:17:49.796Z,24.25
2023-04-30T06:20:16.875Z,24.75
2023-04-30T06:22:43.917Z,16.85
2023-04-30T06:25:11.001Z,22.23
2023-04-30T06:27:38.127Z,19.50
2023-04-30T06:30:05.528Z,23.52
2023-04-30T06:32:32.579Z,17.95
2023-04-30T06:34:59.691Z,19.98
2023-04-30T06:37:26.805Z,17.38
2023-04-30T06:39:54.180Z,18.55
2023-04-30T06:42:21.468Z,18.05
2023-04-30T06:44:48.683Z,18.30
2023-04-30T06:47:15.775Z,17.40
2023-04-30T06:49:42.821Z,19.48
2023-04-30T06:52:10.012Z,14.70
2023-04-30T06:54:37.135Z,19.60
2023-04-30T06:57:04.311Z,18.92
2023-04-30T06:59:31.421Z,16.40
2023-04-30T07:01:58.664Z,16.27
2023-04-30T07:04:26.153Z,15.50
2023-04-30T07:06:53.263Z,17.00
2023-04-30T07:09:20.340Z,16.23
2023-04-30T07:11:47.503Z,15.30
2023-04-30T07:14:14.614Z,20.83
2023-04-30T07:16:41.669Z,18.38
2023-04-30T07:19:08.725Z,15.93
2023-04-30T07:21:35.833Z,16.02
2023-04-30T07:24:02.927Z,15.00
2023-04-30T07:26:30.019Z,13.55
2023-04-30T07:28:57.099Z,12.73
2023-04-30T07:31:25.926Z,12.82
2023-04-30T07:33:55.194Z,15.15
2023-04-30T07:36:22.887Z,11.00
2023-04-30T07:38:50.189Z,13.25
2023-04-30T07:41:17.244Z,12.98
2023-04-30T07:43:44.575Z,12.18
2023-04-30T07:46:11.885Z,12.02
2023-04-30T07:48:39.057Z,14.63
2023-04-30T07:51:06.226Z,12.15
2023-04-30T07:53:33.251Z,14.52
2023-04-30T07:56:00.355Z,11.45
2023-04-30T07:58:27.531Z,13.38
2023-04-30T08:00:54.584Z,10.57
2023-04-30T08:03:21.922Z,13.75
2023-04-30T08:05:49.145Z,14.43
2023-04-30T08:08:16.272Z,14.65
2023-04-30T08:10:43.684Z,12.48
2023-04-30T08:13:10.805Z,11.35
2023-04-30T08:15:40.007Z,14.07
2023-04-30T08:18:07.137Z,12.52
2023-04-30T08:20:35.609Z,9.30
2023-04-30T08:23:03.604Z,10.45
2023-04-30T08:25:31.736Z,11.65
2023-04-30T08:27:58.810Z,10.07
2023-04-30T08:30:25.972Z,10.82
2023-04-30T08:32:55.290Z,11.68
2023-04-30T08:35:24.009Z,9.80
2023-04-30T08:37:51.448Z,7.80
2023-04-30T08:40:18.614Z,11.65
2023-04-30T08:42:48.183Z,6.45
2023-04-30T08:45:16.213Z,8.40
2023-04-30T08:47:43.682Z,8.95
2023-04-30T08:50:10.936Z,9.15
2023-04-30T08:52:38.001Z,7.50
2023-04-30T08:55:07.661Z,7.38
2023-04-30T08:57:34.716Z,10.65
2023-04-30T09:00:01.812Z,8.10
2023-04-30T09:02:28.865Z,6.22
2023-04-30T09:04:56.274Z,8.75
2023-04-30T09:07:25.293Z,6.97
2023-04-30T09:09:54.058Z,5.15
2023-04-30T09:12:22.784Z,7.47
2023-04-30T09:15:03.664Z,6.22
2023-04-30T09:17:31.172Z,5.03
2023-04-30T09:20:10.710Z,4.82
2023-04-30T09:22:38.146Z,6.95
2023-04-30T09:25:05.622Z,6.57
2023-04-30T09:27:32.684Z,4.57
2023-04-30T09:29:59.735Z,4.38
2023-04-30T09:32:26.903Z,4.60
2023-04-30T09:34:53.997Z,8.27
2023-04-30T09:37:21.088Z,6.40
2023-04-30T09:39:51.584Z,5.90
2023-04-30T09:42:19.574Z,3.47
2023-04-30T09:44:46.889Z,3.10
2023-04-30T09:47:15.216Z,3.53
2023-04-30T09:49:45.053Z,2.78
2023-04-30T09:52:12.703Z,4.40
2023-04-30T09:54:39.881Z,3.58
2023-04-30T09:57:09.926Z,4.00
2023-04-30T09:59:37.970Z,3.72
2023-04-30T10:02:05.401Z,1.92
2023-04-30T10:04:36.609Z,2.92
2023-04-30T10:07:07.317Z,1.92
2023-04-30T10:09:36.715Z,4.55
2023-04-30T10:12:04.383Z,4.83
2023-04-30T10:14:34.290Z,2.28
2023-04-30T10:17:06.374Z,2.55
2023-04-30T10:19:34.309Z,1.10
2023-04-30T10:22:02.063Z,2.45
2023-04-30T10:24:29.128Z,3.55
2023-04-30T10:26:57.266Z,1.23
2023-04-30T10:29:24.353Z,1.67
2023-04-30T10:31:52.588Z,2.92
2023-04-30T10:34:38.099Z,1.73
2023-04-30T10:37:06.334Z,1.08
2023-04-30T10:39:33.404Z,0.88
2023-04-30T10:42:03.829Z,2.00
2023-04-30T10:44:34.993Z,1.67
2023-04-30T10:47:02.666Z,5.05
2023-04-30T10:49:29.926Z,2.80
2023-04-30T10:52:00.208Z,1.60
2023-04-30T10:54:30.982Z,1.95
2023-04-30T10:57:14.168Z,2.40
2023-04-30T10:59:46.042Z,1.70
2023-04-30T11:02:13.546Z,2.08
2023-04-30T11:04:59.216Z,1.60
2023-04-30T11:07:28.536Z,1.85
2023-04-30T11:09:57.772Z,3.33
2023-04-30T11:12:29.367Z,1.77
2023-04-30T11:15:13.577Z,1.50
2023-04-30T11:17:40.702Z,3.75
2023-04-30T11:20:08.271Z,2.20
2023-04-30T11:22:38.436Z,2.08
2023-04-30T11:25:13.217Z,2.20
2023-04-30T11:27:44.944Z,1.65
2023-04-30T11:30:16.297Z,1.98
2023-04-30T11:32:46.224Z,1.55
2023-04-30T11:37:43.161Z,2.60
2023-04-30T11:40:11.166Z,2.60
2023-04-30T11:42:39.463Z,2.45
2023-04-30T11:45:10.620Z,1.77
2023-04-30T11:47:50.790Z,2.42
2023-04-30T11:50:19.230Z,2.65
2023-04-30T11:52:49.846Z,2.60
2023-04-30T11:55:17.311Z,2.13
2023-04-30T11:57:45.019Z,3.38
2023-04-30T12:00:13.046Z,4.18
2023-04-30T12:02:40.517Z,1.38
2023-04-30T12:05:17.613Z,1.40
2023-04-30T12:07:48.688Z,4.32
2023-04-30T12:10:16.065Z,1.83
2023-04-30T12:12:43.631Z,1.48
2023-04-30T12:15:13.758Z,2.90
2023-04-30T12:20:11.352Z,3.35
2023-04-30T12:22:38.445Z,3.00
2023-04-30T12:25:09.973Z,2.42
2023-04-30T12:27:37.256Z,3.35
2023-04-30T12:30:08.113Z,1.73
2023-04-30T12:32:39.807Z,2.03
2023-04-30T12:35:07.260Z,1.40
2023-04-30T12:37:34.370Z,1.33
2023-04-30T12:40:01.475Z,3.63
2023-04-30T12:42:34.412Z,1.80
2023-04-30T12:45:01.562Z,1.75
2023-04-30T12:47:28.665Z,1.40
2023-04-30T12:49:56.081Z,2.03
2023-04-30T12:52:26.837Z,1.58
2023-04-30T12:54:54.966Z,2.20
2023-04-30T12:57:21.988Z,2.15
2023-04-30T12:59:55.660Z,3.13
2023-04-30T13:02:26.975Z,2.58
2023-04-30T13:04:54.171Z,1.48
2023-04-30T13:07:21.536Z,1.88
2023-04-30T13:09:48.662Z,4.15
2023-04-30T13:12:15.776Z,1.15
2023-04-30T13:14:42.892Z,1.48
2023-04-30T13:17:12.330Z,1.77
2023-04-30T13:19:39.410Z,0.95
2023-04-30T13:22:06.431Z,2.05
2023-04-30T13:24:33.557Z,1.90
2023-04-30T13:27:00.650Z,2.30
2023-04-30T13:29:27.779Z,2.35
2023-04-30T13:31:54.878Z,2.13
2023-04-30T13:34:22.318Z,1.85
2023-04-30T13:36:49.497Z,1.92
2023-04-30T13:39:16.617Z,1.73
2023-04-30T13:41:43.776Z,2.97
2023-04-30T13:44:11.370Z,1.25
2023-04-30T13:46:38.531Z,1.42
2023-04-30T13:49:05.873Z,1.38
2023-04-30T13:51:32.967Z,2.38
2023-04-30T13:53:59.973Z,2.63
2023-04-30T13:56:27.046Z,2.17
2023-04-30T13:58:54.118Z,1.00
2023-04-30T14:01:21.180Z,1.02
2023-04-30T14:03:48.418Z,0.93
2023-04-30T14:06:15.676Z,3.80
2023-04-30T14:08:42.796Z,1.25
2023-04-30T14:11:09.965Z,1.35
2023-04-30T14:13:37.048Z,1.30
2023-04-30T14:16:04.219Z,1.80
2023-04-30T14:18:31.573Z,1.98
2023-04-30T14:20:58.598Z,1.45
2023-04-30T14:23:26.084Z,1.45
2023-04-30T14:25:54.044Z,2.45
2023-04-30T14:28:21.240Z,0.93
2023-04-30T14:30:48.368Z,2.33
2023-04-30T14:33:15.724Z,1.30
2023-04-30T14:35:42.866Z,1.38
2023-04-30T14:38:09.983Z,1.33
2023-04-30T14:40:37.546Z,1.20
2023-04-30T14:43:05.097Z,0.93
2023-04-30T14:45:33.746Z,1.45
2023-04-30T14:48:03.285Z,1.45
2023-04-30T14:50:32.495Z,0.98
2023-04-30T14:52:59.537Z,1.23
2023-04-30T14:55:26.626Z,1.40
2023-04-30T14:57:53.827Z,1.63
2023-04-30T15:00:21.053Z,2.03
2023-04-30T15:02:48.399Z,1.88
2023-04-30T15:05:15.865Z,1.83
2023-04-30T15:07:43.060Z,1.08
2023-04-30T15:10:10.578Z,0.80
2023-04-30T15:12:37.725Z,1.88
2023-04-30T15:15:04.876Z,1.40
2023-04-30T15:17:34.822Z,2.58
2023-04-30T15:22:30.928Z,1.13
2023-04-30T15:24:59.037Z,2.00
2023-04-30T15:27:26.328Z,0.85
2023-04-30T15:29:53.698Z,2.80
2023-04-30T15:32:21.344Z,2.40
2023-04-30T15:34:48.395Z,2.17
2023-04-30T15:37:15.540Z,1.95
2023-04-30T15:39:42.597Z,1.88
2023-04-30T15:42:09.648Z,1.58
2023-04-30T15:44:36.693Z,2.75
2023-04-30T15:47:03.854Z,1.35
2023-04-30T15:49:30.958Z,0.85
2023-04-30T15:51:58.313Z,1.20
2023-04-30T15:54:25.627Z,2.22
2023-04-30T15:56:53.107Z,2.83
2023-04-30T15:59:20.248Z,1.95
2023-04-30T16:01:47.353Z,1.27
2023-04-30T16:04:14.608Z,2.20
2023-04-30T16:06:42.363Z,2.10
2023-04-30T16:09:09.488Z,1.75
2023-04-30T16:11:36.578Z,2.50
2023-04-30T16:14:03.710Z,1.73
2023-04-30T16:16:31.018Z,2.55
2023-04-30T16:18:58.144Z,1.40
2023-04-30T16:21:25.295Z,1.63
2023-04-30T16:23:52.764Z,4.78
2023-04-30T16:26:19.872Z,2.50
2023-04-30T16:28:47.341Z,2.33
2023-04-30T16:31:15.610Z,1.38
2023-04-30T16:33:43.108Z,1.70
2023-04-30T16:36:11.049Z,2.58
2023-04-30T16:38:38.204Z,1.38
2023-04-30T16:41:05.352Z,1.10
2023-04-30T16:43:32.489Z,2.22
2023-04-30T16:45:59.675Z,2.53
2023-04-30T16:48:26.821Z,2.88
2023-04-30T16:50:53.872Z,3.03
2023-04-30T16:53:21.717Z,2.38
2023-04-30T16:55:48.841Z,2.13
2023-04-30T16:58:16.610Z,3.72
2023-04-30T17:00:43.651Z,3.08
2023-04-30T17:03:10.938Z,2.50
2023-04-30T17:05:38.164Z,3.70
2023-04-30T17:08:05.526Z,3.42
2023-04-30T17:10:32.723Z,2.67
2023-04-30T17:13:02.065Z,1.80
2023-04-30T17:15:29.307Z,2.80
2023-04-30T17:17:57.242Z,1.38
2023-04-30T17:20:24.408Z,2.53
2023-04-30T17:22:53.197Z,2.78
2023-04-30T17:25:20.491Z,3.85
2023-04-30T17:27:47.881Z,3.33
2023-04-30T17:30:15.352Z,3.42
2023-04-30T17:32:44.173Z,8.63
2023-04-30T17:35:11.264Z,6.78
2023-04-30T17:37:38.404Z,5.93
2023-04-30T17:40:05.856Z,2.60
2023-04-30T17:42:33.999Z,5.30
2023-04-30T17:45:01.383Z,2.47
2023-04-30T17:47:28.751Z,2.08
2023-04-30T17:49:56.325Z,4.82
2023-04-30T17:52:23.869Z,3.38
2023-04-30T17:54:50.984Z,4.55
2023-04-30T17:57:18.036Z,6.15
2023-04-30T17:59:45.172Z,4.22
2023-04-30T18:02:12.259Z,4.43
2023-04-30T18:04:39.397Z,5.22
2023-04-30T18:07:08.150Z,2.53
2023-04-30T18:09:35.983Z,5.57
2023-04-30T18:12:03.722Z,3.78
2023-04-30T18:14:30.818Z,3.83
2023-04-30T18:16:58.042Z,4.47
2023-04-30T18:19:25.334Z,5.85
2023-04-30T18:21:56.659Z,4.20
2023-04-30T18:24:28.305Z,4.22
2023-04-30T18:26:55.802Z,5.18
2023-04-30T18:29:23.612Z,4.05
2023-04-30T18:31:50.723Z,5.80
2023-04-30T18:34:17.806Z,6.60
2023-04-30T18:36:44.874Z,5.90
2023-04-30T18:39:12.413Z,4.97
2023-04-30T18:41:39.450Z,4.75
2023-04-30T18:44:07.190Z,6.63
2023-04-30T18:46:34.257Z,3.13
2023-04-30T18:49:02.677Z,3.80
2023-04-30T18:51:29.758Z,3.85
2023-04-30T18:53:57.242Z,4.15
2023-04-30T18:56:24.666Z,6.55
2023-04-30T18:58:51.730Z,4.20
2023-04-30T19:01:21.454Z,5.00
2023-04-30T19:03:48.618Z,4.93
2023-04-30T19:06:15.754Z,14.90
2023-04-30T19:08:45.609Z,7.38
2023-04-30T19:11:13.839Z,22.73
2023-04-30T19:13:40.860Z,16.92
2023-04-30T19:16:08.201Z,17.67
2023-04-30T19:18:36.377Z,17.05
2023-04-30T19:21:05.277Z,20.35
2023-04-30T19:23:32.597Z,23.35
2023-04-30T19:25:59.927Z,29.25
2023-04-30T19:28:27.029Z,16.23
2023-04-30T19:30:54.665Z,25.38
2023-04-30T19:33:22.557Z,12.73
2023-04-30T19:35:50.275Z,5.35
2023-04-30T19:38:17.712Z,7.63
2023-04-30T19:40:54.310Z,5.38
2023-04-30T19:43:22.506Z,5.10
2023-04-30T19:45:56.478Z,5.93
2023-04-30T19:48:23.865Z,7.70
2023-04-30T19:50:53.139Z,9.88
2023-04-30T19:53:21.311Z,11.07
2023-04-30T19:55:48.397Z,15.27
2023-04-30T19:58:15.545Z,13.63
2023-04-30T20:00:43.053Z,6.60
2023-04-30T20:03:10.136Z,6.43
2023-04-30T20:05:37.848Z,2.90
2023-04-30T20:08:05.258Z,6.05
2023-04-30T20:10:33.864Z,6.93
2023-04-30T20:13:00.936Z,3.28
2023-04-30T20:15:27.991Z,5.88
2023-04-30T20:17:55.067Z,4.70
2023-04-30T20:20:23.895Z,3.92
2023-04-30T20:22:51.777Z,4.38
2023-04-30T20:25:19.103Z,3.65
2023-04-30T20:27:46.469Z,5.93
2023-04-30T20:30:13.628Z,5.53
2023-04-30T20:32:41.096Z,5.07
2023-04-30T20:35:08.323Z,5.38
2023-04-30T20:37:36.063Z,6.50
2023-04-30T20:40:03.867Z,5.95
2023-04-30T20:42:31.058Z,6.43
2023-04-30T20:44:58.271Z,4.47
2023-04-30T20:47:25.517Z,4.55
2023-04-30T20:49:53.550Z,4.22
2023-04-30T20:52:21.165Z,6.30
2023-04-30T20:54:49.960Z,3.45
2023-04-30T20:57:17.167Z,5.63
2023-04-30T20:59:44.170Z,6.57
2023-04-30T21:02:11.752Z,3.47
2023-04-30T21:04:38.894Z,6.97
2023-04-30T21:07:05.973Z,4.82
2023-04-30T21:09:34.586Z,5.85
2023-04-30T21:12:05.034Z,7.18
2023-04-30T21:14:32.356Z,4.72
2023-04-30T21:16:59.684Z,7.88
2023-04-30T21:19:27.034Z,4.15
2023-04-30T21:21:54.096Z,7.00
2023-04-30T21:24:21.256Z,12.68
2023-04-30T21:26:48.466Z,7.00
2023-04-30T21:29:15.528Z,7.05
2023-04-30T21:31:42.560Z,9.10
2023-04-30T21:34:09.621Z,4.18
2023-04-30T21:36:37.221Z,5.53
2023-04-30T21:39:04.358Z,5.40
2023-04-30T21:41:32.102Z,28.42
2023-04-30T21:43:59.228Z,15.80
2023-04-30T21:46:26.405Z,9.30
2023-04-30T21:48:56.456Z,11.02
2023-04-30T21:51:23.626Z,6.05
2023-04-30T21:53:50.731Z,6.13
2023-04-30T21:56:19.191Z,5.57
2023-04-30T21:58:48.120Z,7.20
2023-04-30T22:01:15.214Z,9.70
2023-04-30T22:03:42.657Z,5.80
2023-04-30T22:06:09.756Z,6.10
2023-04-30T22:08:36.843Z,7.15
2023-04-30T22:11:04.589Z,8.13
2023-04-30T22:13:31.701Z,8.48
2023-04-30T22:15:58.772Z,6.00
2023-04-30T22:18:25.928Z,8.13
2023-04-30T22:20:53.137Z,7.30
2023-04-30T22:23:21.337Z,5.45
2023-04-30T22:25:48.501Z,6.22
2023-04-30T22:28:20.293Z,8.13
2023-04-30T22:30:47.432Z,7.88
2023-04-30T22:33:14.642Z,8.38
2023-04-30T22:35:41.855Z,8.02
2023-04-30T22:38:08.941Z,6.97
2023-04-30T22:40:37.760Z,7.22
2023-04-30T22:43:05.199Z,6.07
2023-04-30T22:45:32.418Z,6.85
2023-04-30T22:48:01.584Z,8.50
2023-04-30T22:50:29.108Z,7.60
2023-04-30T22:52:56.274Z,7.05
2023-04-30T22:55:23.382Z,6.38
2023-04-30T22:57:50.533Z,8.35
2023-04-30T23:00:19.010Z,7.85
2023-04-30T23:02:46.216Z,7.63
2023-04-30T23:05:13.361Z,8.77
2023-04-30T23:07:40.715Z,7.30
2023-04-30T23:10:07.991Z,9.02
2023-04-30T23:12:35.615Z,8.55
2023-04-30T23:15:02.641Z,6.18
2023-04-30T23:17:29.741Z,11.55
2023-04-30T23:19:57.381Z,8.90
2023-04-30T23:22:24.630Z,8.75
2023-04-30T23:24:51.755Z,10.95
2023-04-30T23:27:18.840Z,9.52
2023-04-30T23:29:45.887Z,7.75
2023-04-30T23:32:13.015Z,9.18
2023-04-30T23:34:40.414Z,6.03
2023-04-30T23:37:07.589Z,6.45
2023-04-30T23:39:34.675Z,8.75
2023-04-30T23:42:02.459Z,7.82
2023-04-30T23:44:32.176Z,8.18
2023-04-30T23:47:00.867Z,9.07
2023-04-30T23:49:28.134Z,7.85
2023-04-30T23:51:55.202Z,7.85
2023-04-30T23:54:22.375Z,7.30
2023-04-30T23:56:49.499Z,9.57
2023-04-30T23:59:16.704Z,7.13
